Time;durP1;ratioP1;P1;durP2;ratioP2;P2;SDS_P1;SDS_P2;PMS_P1;PMS_P2;Temp;Humidity;BMP_temperature;BMP_pressure;BME280_temperature;BME280_humidity;BME280_pressure;Samples;Min_cycle;Max_cycle;Signal;HPM_P1;HPM_P2
2021/03/13 00:00:37;;;;;;;33.58;17.85;;;;;;;1.26;94.67;97083.44;5004756;28;20148;-62
2021/03/13 00:03:21;;;;;;;39.08;20.48;;;;;;;0.58;94.32;96943.06;5004650;28;20063;-62
2021/03/13 00:06:06;;;;;;;34.08;18.67;;;;;;;1.39;93.89;97082.56;5004196;28;20108;-63
2021/03/13 00:08:50;;;;;;;29.80;18.10;;;;;;;1.58;92.28;97069.53;5005889;28;20076;-62
2021/03/13 00:11:34;;;;;;;43.28;20.50;;;;;;;1.59;90.63;97045.78;5004255;28;20092;-65
2021/03/13 00:14:18;;;;;;;35.63;17.83;;;;;;;1.28;89.59;96993.13;5005155;28;20570;-62
2021/03/13 00:17:02;;;;;;;30.52;16.08;;;;;;;1.81;89.64;97058.56;5003371;28;20045;-61
2021/03/13 00:19:46;;;;;;;43.88;18.77;;;;;;;0.24;90.17;96810.13;5004998;28;20119;-62
2021/03/13 00:22:30;;;;;;;29.00;15.13;;;;;;;1.19;89.13;96968.50;5004356;28;20064;-63
2021/03/13 00:25:14;;;;;;;31.83;16.65;;;;;;;1.22;89.02;96997.06;5004513;28;20110;-62
2021/03/13 00:27:59;;;;;;;29.35;16.55;;;;;;;-2.35;88.97;96411.81;5004854;28;20553;-62
2021/03/13 00:30:45;;;;;;;40.20;20.27;;;;;;;1.75;89.32;97062.56;5004208;28;20441;-62
2021/03/13 00:33:35;;;;;;;46.22;22.08;;;;;;;1.73;89.18;97053.84;5004017;28;20112;-63
2021/03/13 00:36:19;;;;;;;41.40;21.63;;;;;;;1.77;89.10;97052.91;5004085;28;20112;-63
2021/03/13 00:39:05;;;;;;;39.78;21.13;;;;;;;1.78;89.17;97046.34;5004043;28;20060;-62
2021/03/13 00:41:49;;;;;;;44.45;22.23;;;;;;;1.79;89.81;97041.72;5002676;28;20072;-63
2021/03/13 00:44:33;;;;;;;44.17;24.08;;;;;;;1.86;90.12;97058.44;5004521;28;20096;-63
2021/03/13 00:47:17;;;;;;;45.20;24.10;;;;;;;1.92;90.46;97106.31;5003961;28;20684;-62
2021/03/13 00:50:01;;;;;;;48.35;24.08;;;;;;;2.02;89.69;97054.16;5004261;28;20598;-62
2021/03/13 00:52:45;;;;;;;42.35;22.98;;;;;;;1.61;88.63;96974.50;5003007;28;20099;-62
2021/03/13 00:55:30;;;;;;;45.28;22.52;;;;;;;1.82;89.07;97002.84;5003812;28;20076;-63
2021/03/13 00:58:13;;;;;;;53.25;25.02;;;;;;;1.85;88.39;96991.28;5004485;28;20188;-62
2021/03/13 01:00:57;;;;;;;59.13;28.35;;;;;;;2.04;88.91;97032.81;5004810;28;20111;-63
2021/03/13 01:03:41;;;;;;;45.33;22.52;;;;;;;0.99;88.81;96870.84;5002932;28;20168;-61
2021/03/13 01:06:25;;;;;;;58.30;29.83;;;;;;;1.81;88.43;96984.84;5003758;28;20578;-64
2021/03/13 01:09:09;;;;;;;55.63;27.63;;;;;;;2.37;86.89;97042.25;5004249;28;20515;-62
2021/03/13 01:11:55;;;;;;;42.50;23.75;;;;;;;2.38;86.96;97038.38;5003406;28;20092;-62
2021/03/13 01:14:39;;;;;;;47.00;26.65;;;;;;;2.24;88.41;97034.97;5002866;28;20041;-63
2021/03/13 01:17:23;;;;;;;38.65;20.33;;;;;;;1.58;88.52;96949.41;5003478;28;20081;-62
2021/03/13 01:20:10;;;;;;;41.17;24.63;;;;;;;2.31;88.23;97043.50;5003668;28;20124;-62
2021/03/13 01:22:55;;;;;;;34.03;18.38;;;;;;;1.91;88.93;96968.19;5030393;28;20049;-62
2021/03/13 01:25:39;;;;;;;39.78;18.65;;;;;;;1.33;89.29;96881.09;5002541;28;20554;-62
2021/03/13 01:28:23;;;;;;;27.90;15.32;;;;;;;2.01;90.67;97003.41;5003879;28;20056;-64
2021/03/13 01:31:07;;;;;;;33.35;16.48;;;;;;;2.04;90.63;97000.03;5006126;28;20530;-63
2021/03/13 01:33:51;;;;;;;31.35;16.65;;;;;;;1.58;90.79;96998.56;5008322;28;20044;-62
2021/03/13 01:36:35;;;;;;;35.60;17.52;;;;;;;1.76;91.26;96941.28;5007482;28;20053;-62
2021/03/13 01:39:19;;;;;;;32.85;16.27;;;;;;;2.19;90.49;96991.38;5008364;28;20045;-62
2021/03/13 01:42:03;;;;;;;29.20;15.18;;;;;;;2.27;89.10;96993.34;5007289;28;20049;-63
2021/03/13 01:44:47;;;;;;;27.17;14.77;;;;;;;2.04;88.41;96934.47;5007765;28;20095;-62
2021/03/13 01:47:32;;;;;;;30.75;15.52;;;;;;;2.18;88.37;96962.47;5008197;28;20400;-63
2021/03/13 01:50:17;;;;;;;30.60;16.60;;;;;;;2.09;88.09;96931.56;5006266;28;20513;-62
2021/03/13 01:53:01;;;;;;;32.20;16.60;;;;;;;2.40;88.13;96981.47;5006381;28;20088;-63
2021/03/13 01:55:45;;;;;;;30.25;17.05;;;;;;;1.70;88.34;96863.41;5006893;28;20530;-64
2021/03/13 01:58:29;;;;;;;36.85;17.70;;;;;;;2.46;88.04;96980.19;5007455;28;20575;-64
2021/03/13 02:01:14;;;;;;;39.28;18.90;;;;;;;2.50;88.39;96971.03;5006051;28;20053;-63
2021/03/13 02:03:59;;;;;;;40.85;20.63;;;;;;;2.06;87.52;96883.03;5007569;28;20076;-63
2021/03/13 02:06:51;;;;;;;46.60;22.23;;;;;;;2.78;86.82;96977.00;5033583;28;20132;-64
2021/03/13 02:09:54;;;;;;;42.85;22.58;;;;;;;2.74;86.29;96965.06;5006095;28;20052;-62
2021/03/13 02:12:48;;;;;;;36.17;19.38;;;;;;;2.59;86.92;96968.31;5007439;28;20056;-63
2021/03/13 02:15:41;;;;;;;33.55;18.17;;;;;;;2.66;85.99;96963.97;5007346;28;20052;-62
2021/03/13 02:18:36;;;;;;;35.25;17.90;;;;;;;2.62;86.89;96951.25;5006376;28;20041;-63
2021/03/13 02:21:25;;;;;;;32.08;17.05;;;;;;;2.68;86.94;96960.91;5005559;28;20587;-64
2021/03/13 02:24:31;;;;;;;35.47;17.20;;;;;;;2.52;88.39;96951.56;5006847;28;20768;-63
2021/03/13 02:27:21;;;;;;;31.65;16.83;;;;;;;2.46;88.65;96952.84;5006647;28;20053;-64
2021/03/13 02:30:15;;;;;;;35.17;18.80;;;;;;;2.67;87.93;96948.38;5006676;28;20126;-63
2021/03/13 02:33:21;;;;;;;36.38;19.45;;;;;;;2.65;88.32;96936.94;5007047;28;20040;-63
2021/03/13 02:36:14;;;;;;;40.60;21.05;;;;;;;2.58;88.85;97032.28;5006473;28;20416;-62
2021/03/13 02:39:05;;;;;;;49.35;25.83;;;;;;;2.74;88.73;96949.47;5007268;28;20080;-63
2021/03/13 02:41:52;;;;;;;62.00;31.42;;;;;;;2.81;87.53;96944.31;5006075;28;20117;-63
2021/03/13 02:44:38;;;;;;;71.85;35.88;;;;;;;2.76;87.31;96946.44;5005248;28;20044;-62
2021/03/13 02:47:23;;;;;;;43.78;23.10;;;;;;;2.87;87.28;96931.28;5005315;28;20049;-62
2021/03/13 02:50:09;;;;;;;32.75;18.52;;;;;;;1.90;87.73;96787.13;5006043;28;20115;-62
2021/03/13 02:52:54;;;;;;;32.80;17.60;;;;;;;2.41;87.96;96893.69;5006767;28;20104;-63
2021/03/13 02:55:41;;;;;;;36.45;19.83;;;;;;;1.96;88.88;96820.56;5006418;28;20045;-63
2021/03/13 02:58:26;;;;;;;50.80;27.33;;;;;;;2.62;88.03;96918.44;5007091;28;20171;-63
2021/03/13 03:01:11;;;;;;;50.83;26.45;;;;;;;1.97;87.63;96814.78;5006244;28;20416;-63
2021/03/13 03:03:56;;;;;;;51.20;25.52;;;;;;;2.62;88.55;96929.38;5006531;28;20457;-63
2021/03/13 03:06:46;;;;;;;45.83;23.58;;;;;;;2.30;89.51;96921.66;5005469;28;20056;-63
2021/03/13 03:09:31;;;;;;;45.38;22.77;;;;;;;1.96;89.36;96856.84;5006015;28;20072;-62
2021/03/13 03:12:15;;;;;;;86.22;30.80;;;;;;;2.06;88.95;96850.28;5004520;28;20072;-62
2021/03/13 03:15:01;;;;;;;47.65;24.27;;;;;;;2.05;89.49;96870.53;5006215;28;20396;-62
2021/03/13 03:17:47;;;;;;;92.95;35.88;;;;;;;2.52;89.07;96929.69;5005610;28;20144;-62
2021/03/13 03:20:33;;;;;;;71.63;30.60;;;;;;;2.59;88.88;96940.97;5004632;28;20204;-62
2021/03/13 03:23:18;;;;;;;50.20;26.10;;;;;;;2.64;88.00;96927.13;5006308;28;20116;-63
2021/03/13 03:26:02;;;;;;;46.92;23.45;;;;;;;2.67;87.82;96921.03;5032256;28;20040;-64
2021/03/13 03:28:46;;;;;;;44.28;24.02;;;;;;;2.47;88.87;96894.31;5005975;28;20108;-63
2021/03/13 03:31:31;;;;;;;47.35;25.50;;;;;;;1.67;88.29;96782.16;5004211;28;20115;-64
2021/03/13 03:34:15;;;;;;;53.25;27.35;;;;;;;2.66;87.46;96924.88;5005644;28;20485;-64
2021/03/13 03:36:59;;;;;;;48.70;26.67;;;;;;;2.00;87.52;96844.19;5005201;28;20057;-63
2021/03/13 03:39:43;;;;;;;47.22;23.83;;;;;;;1.76;87.78;96802.88;5006122;28;20045;-63
2021/03/13 03:42:29;;;;;;;48.88;24.20;;;;;;;2.06;87.61;96839.34;5005542;28;20459;-63
2021/03/13 03:45:16;;;;;;;49.13;24.75;;;;;;;2.40;88.79;96915.88;5005977;28;20238;-63
2021/03/13 03:48:05;;;;;;;55.03;25.48;;;;;;;1.93;89.31;96845.78;5004517;28;20044;-63
2021/03/13 03:50:50;;;;;;;64.30;28.73;;;;;;;2.12;90.45;96906.38;5005033;28;20176;-63
2021/03/13 03:53:39;;;;;;;50.92;26.38;;;;;;;2.29;90.33;96909.13;5004500;28;20045;-64
2021/03/13 03:56:25;;;;;;;42.25;21.08;;;;;;;1.83;90.68;96848.81;5003329;28;20429;-63
2021/03/13 03:59:20;;;;;;;41.00;19.65;;;;;;;1.64;91.34;96837.38;5005151;28;20473;-63
2021/03/13 04:02:05;;;;;;;34.40;17.95;;;;;;;1.65;92.29;96858.09;5004361;28;20100;-63
2021/03/13 04:04:52;;;;;;;49.35;21.33;;;;;;;2.01;92.85;96914.06;5003772;28;20048;-63
2021/03/13 04:07:37;;;;;;;43.13;20.05;;;;;;;1.47;91.75;96805.41;5004512;28;20068;-64
2021/03/13 04:10:23;;;;;;;41.83;20.58;;;;;;;2.16;91.94;96899.13;5004039;28;20051;-63
2021/03/13 04:13:08;;;;;;;37.58;19.88;;;;;;;0.54;91.17;96656.00;5005741;28;20053;-63
2021/03/13 04:15:53;;;;;;;39.80;21.67;;;;;;;2.14;92.33;96912.31;5004774;28;20045;-64
2021/03/13 04:18:39;;;;;;;40.85;19.85;;;;;;;1.31;92.65;96802.31;5004947;28;20084;-63
2021/03/13 04:21:25;;;;;;;40.55;19.40;;;;;;;2.15;92.54;96913.94;5003545;28;20411;-63
2021/03/13 04:24:13;;;;;;;47.15;22.75;;;;;;;2.23;91.44;96926.81;5003688;28;20598;-63
2021/03/13 04:26:57;;;;;;;55.22;24.80;;;;;;;2.13;91.68;96927.09;5003307;28;20068;-63
2021/03/13 04:29:41;;;;;;;48.97;27.30;;;;;;;2.13;91.30;96927.09;5004652;28;20052;-63
2021/03/13 04:32:26;;;;;;;41.70;22.98;;;;;;;2.07;90.79;96922.91;5004534;28;20080;-63
2021/03/13 04:35:11;;;;;;;40.42;21.50;;;;;;;0.28;91.65;96702.19;5003338;28;20052;-63
2021/03/13 04:37:56;;;;;;;39.80;23.77;;;;;;;1.94;92.47;96934.78;5005055;28;20187;-63
2021/03/13 04:40:41;;;;;;;44.50;23.30;;;;;;;1.99;91.55;96926.44;5003874;28;20113;-63
2021/03/13 04:43:26;;;;;;;44.22;24.35;;;;;;;1.40;91.95;96844.06;5004291;28;20140;-63
2021/03/13 04:46:10;;;;;;;47.15;25.58;;;;;;;1.92;92.12;96906.97;5030447;28;20547;-64
2021/03/13 04:48:55;;;;;;;86.65;37.60;;;;;;;2.16;89.96;96937.38;4985200;28;20473;-64
2021/03/13 04:51:40;;;;;;;78.80;39.28;;;;;;;1.97;91.21;96945.06;4984049;28;20481;-64
2021/03/13 04:54:24;;;;;;;104.30;56.10;;;;;;;2.06;91.61;96943.13;4984698;28;20105;-64
2021/03/13 04:57:08;;;;;;;67.53;33.55;;;;;;;2.22;89.58;96947.84;4984604;28;20053;-63
2021/03/13 04:59:52;;;;;;;57.50;29.23;;;;;;;2.00;88.95;96928.84;4997407;28;20481;-63
2021/03/13 05:02:37;;;;;;;54.90;27.73;;;;;;;2.17;89.86;96950.72;4984465;28;20126;-64
2021/03/13 05:05:21;;;;;;;73.32;39.10;;;;;;;1.31;88.81;96799.56;4983177;28;20437;-63
2021/03/13 05:08:05;;;;;;;53.03;28.30;;;;;;;1.55;89.49;96819.06;4983226;28;20061;-63
2021/03/13 05:10:49;;;;;;;60.28;33.40;;;;;;;2.27;90.29;96944.16;4984047;28;20141;-63
2021/03/13 05:13:33;;;;;;;85.43;45.40;;;;;;;1.12;90.66;96749.94;4984350;28;20116;-61
2021/03/13 05:16:17;;;;;;;78.20;39.15;;;;;;;1.61;89.46;96805.25;4984030;28;20472;-62
2021/03/13 05:19:01;;;;;;;69.95;33.55;;;;;;;2.03;88.06;96840.00;4985082;28;20413;-63
2021/03/13 05:21:45;;;;;;;48.47;24.52;;;;;;;2.65;89.61;96940.50;4984695;28;20038;-63
2021/03/13 05:24:29;;;;;;;50.63;26.17;;;;;;;2.68;87.65;96922.63;4984292;28;20049;-62
2021/03/13 05:27:13;;;;;;;69.72;34.72;;;;;;;3.02;85.73;96949.94;4983887;28;20307;-62
2021/03/13 05:29:58;;;;;;;72.43;39.15;;;;;;;2.51;86.05;96873.44;4984043;28;20046;-62
2021/03/13 05:32:42;;;;;;;70.93;40.17;;;;;;;-0.47;86.82;96416.59;4984401;28;20041;-62
2021/03/13 05:35:26;;;;;;;83.25;36.08;;;;;;;2.98;87.26;96948.97;4996216;28;20127;-62
2021/03/13 05:38:10;;;;;;;52.05;26.00;;;;;;;2.00;88.22;96862.47;4984467;28;20571;-62
2021/03/13 05:40:58;;;;;;;76.18;32.33;;;;;;;2.60;90.60;96954.31;4983668;28;20052;-63
2021/03/13 05:43:43;;;;;;;134.68;67.38;;;;;;;2.32;89.60;96864.75;4996921;28;20047;-62
2021/03/13 05:46:35;;;;;;;92.85;43.28;;;;;;;3.09;88.86;96940.13;4998413;28;20093;-65
2021/03/13 05:49:22;;;;;;;74.25;37.08;;;;;;;3.51;87.46;96968.50;5002675;28;20045;-63
2021/03/13 05:52:07;;;;;;;45.75;26.67;;;;;;;3.75;86.09;96974.22;5003130;28;20123;-63
2021/03/13 05:54:52;;;;;;;56.25;31.40;;;;;;;3.95;84.69;96968.00;5003497;28;20524;-61
2021/03/13 05:57:37;;;;;;;61.30;30.98;;;;;;;3.07;84.02;96789.16;5003394;28;20053;-62
2021/03/13 06:00:22;;;;;;;67.65;32.38;;;;;;;3.98;83.02;96939.94;5001963;28;20048;-62
2021/03/13 06:03:06;;;;;;;81.30;39.22;;;;;;;3.91;81.77;96923.22;5002026;28;20220;-62
2021/03/13 06:05:50;;;;;;;85.30;43.97;;;;;;;4.53;82.03;96973.50;5001544;28;20123;-62
2021/03/13 06:08:35;;;;;;;83.05;44.15;;;;;;;4.81;80.70;96962.78;5003873;28;20049;-63
2021/03/13 06:11:22;;;;;;;74.90;40.13;;;;;;;5.04;80.18;96960.50;5003417;28;20056;-60
2021/03/13 06:14:06;;;;;;;77.90;41.33;;;;;;;3.91;78.52;96819.13;5003429;28;20433;-64
2021/03/13 06:16:50;;;;;;;60.97;34.13;;;;;;;4.74;78.32;96890.38;5004870;28;20123;-63
2021/03/13 06:19:49;;;;;;;47.30;25.38;;;;;;;5.22;78.31;96978.38;5007349;28;20104;-62
2021/03/13 06:22:38;;;;;;;45.58;23.77;;;;;;;5.35;77.53;96977.31;5005844;28;20463;-62
2021/03/13 06:25:25;;;;;;;46.15;25.70;;;;;;;5.62;77.13;96973.94;5006475;28;20037;-62
2021/03/13 06:28:19;;;;;;;42.88;26.20;;;;;;;5.72;75.36;96965.28;5000277;28;21000;-65
2021/03/13 06:31:07;;;;;;;47.65;25.08;;;;;;;4.49;74.67;96758.63;4994679;28;20045;-62
2021/03/13 06:33:51;;;;;;;32.90;21.77;;;;;;;5.20;73.82;96843.41;4997748;28;20121;-68
2021/03/13 06:36:35;;;;;;;42.47;25.48;;;;;;;5.47;73.37;96903.97;5002977;28;20394;-65
2021/03/13 06:39:37;;;;;;;37.38;23.05;;;;;;;6.07;72.78;96966.47;4998848;28;20045;-63
2021/03/13 06:42:26;;;;;;;39.30;24.40;;;;;;;6.23;73.05;96974.88;5000910;28;20516;-64
2021/03/13 06:45:11;;;;;;;41.70;22.45;;;;;;;6.04;71.67;96890.19;4991061;28;20124;-64
2021/03/13 06:47:56;;;;;;;38.78;24.05;;;;;;;6.14;70.10;96867.72;4999912;28;20579;-64
2021/03/13 06:50:40;;;;;;;66.00;36.63;;;;;;;7.11;68.30;96978.38;4996975;28;20128;-64
2021/03/13 06:53:24;;;;;;;48.97;27.77;;;;;;;7.40;65.68;96970.56;5017498;28;20057;-61
2021/03/13 06:56:10;;;;;;;42.38;26.17;;;;;;;7.50;66.92;96974.75;4992913;28;20041;-62
2021/03/13 06:58:55;;;;;;;46.60;27.40;;;;;;;7.06;65.28;96850.00;4987037;28;20108;-66
2021/03/13 07:01:39;;;;;;;46.97;28.67;;;;;;;7.97;64.13;96972.06;4992787;28;20044;-66
2021/03/13 07:04:30;;;;;;;47.97;29.15;;;;;;;8.20;63.88;96964.78;4994892;28;20556;-69
2021/03/13 07:07:30;;;;;;;40.28;23.05;;;;;;;8.67;63.07;96963.59;4989781;28;20069;-62
2021/03/13 07:10:24;;;;;;;37.75;23.70;;;;;;;8.84;60.94;96962.38;4986559;28;20049;-62
2021/03/13 07:13:08;;;;;;;63.17;35.90;;;;;;;8.98;61.71;96957.97;4992395;28;20659;-60
2021/03/13 07:15:53;;;;;;;67.35;40.70;;;;;;;9.05;60.53;96926.94;4995083;28;20041;-62
2021/03/13 07:18:37;;;;;;;46.15;27.15;;;;;;;9.15;58.66;96851.75;4997163;28;20101;-65
2021/03/13 07:21:22;;;;;;;34.63;22.65;;;;;;;9.48;58.23;96901.75;4986132;28;20041;-63
2021/03/13 07:24:09;;;;;;;48.30;19.48;;;;;;;9.71;57.64;96944.03;4999353;28;20091;-67
2021/03/13 07:26:57;;;;;;;21.85;14.07;;;;;;;9.07;58.27;96921.84;4985630;28;20153;-62
2021/03/13 07:29:45;;;;;;;20.50;14.00;;;;;;;8.72;61.40;96971.59;4986565;28;20441;-72
2021/03/13 07:32:31;;;;;;;20.95;13.90;;;;;;;8.34;62.75;96934.81;4990978;28;20536;-65
2021/03/13 07:39:49;;;;;;;24.15;15.10;;;;;;;7.57;62.98;96802.13;5121351;27;20894;-61
2021/03/13 07:42:36;;;;;;;24.75;15.57;;;;;;;8.27;64.23;96915.31;5110263;28;20043;-62
2021/03/13 07:45:21;;;;;;;24.00;15.75;;;;;;;7.26;63.43;96771.81;5101115;28;20536;-65
2021/03/13 07:48:08;;;;;;;21.30;13.98;;;;;;;8.39;62.17;96913.25;5101628;28;20101;-64
2021/03/13 07:50:52;;;;;;;22.38;14.88;;;;;;;8.71;60.52;96917.53;5102100;28;20512;-64
2021/03/13 07:53:39;;;;;;;29.80;14.80;;;;;;;8.69;60.38;96881.19;5101948;28;20128;-62
2021/03/13 07:56:25;;;;;;;23.17;15.73;;;;;;;8.66;60.04;96886.66;5067474;27;20492;-62
2021/03/13 07:59:11;;;;;;;24.58;14.40;;;;;;;8.18;63.40;96932.03;5053338;28;20083;-62
2021/03/13 08:01:55;;;;;;;22.52;14.02;;;;;;;8.18;63.32;96945.00;5057987;28;20521;-63
2021/03/13 08:04:39;;;;;;;27.20;15.52;;;;;;;8.17;63.40;96946.19;5048627;28;20040;-67
2021/03/13 08:07:28;;;;;;;28.00;16.00;;;;;;;6.13;64.16;96525.19;5049410;28;20068;-66
2021/03/13 08:10:43;;;;;;;27.45;16.40;;;;;;;6.58;67.57;96707.09;5048691;28;20110;-62
2021/03/13 08:13:27;;;;;;;28.05;16.33;;;;;;;7.92;70.44;96947.53;5044966;28;20179;-64
2021/03/13 08:16:13;;;;;;;27.98;16.42;;;;;;;8.04;69.76;96930.88;5048346;28;20048;-68
2021/03/13 08:18:58;;;;;;;31.88;15.10;;;;;;;7.97;68.14;96945.28;5055528;28;20059;-67
2021/03/13 08:21:43;;;;;;;31.98;15.57;;;;;;;7.84;68.15;96962.28;5059298;28;20112;-61
2021/03/13 08:24:40;;;;;;;25.92;15.35;;;;;;;5.05;66.30;96511.94;5043122;28;20522;-69
2021/03/13 08:27:34;;;;;;;20.02;14.05;;;;;;;8.31;65.91;96938.28;5054674;28;20141;-64
2021/03/13 08:30:25;;;;;;;24.88;15.68;;;;;;;8.09;66.67;96941.66;5050336;28;20060;-61
2021/03/13 08:33:09;;;;;;;33.10;15.77;;;;;;;7.69;67.59;96912.28;5042522;28;20379;-63
2021/03/13 08:35:53;;;;;;;30.75;16.13;;;;;;;8.53;66.93;96940.38;5047483;28;20040;-62
2021/03/13 08:39:11;;;;;;;25.33;15.88;;;;;;;9.82;60.95;96936.72;5050164;28;20614;-67
2021/03/13 08:41:56;;;;;;;22.80;14.80;;;;;;;9.44;59.12;96848.34;5049345;28;20870;-61
2021/03/13 08:44:40;;;;;;;22.38;14.85;;;;;;;9.33;59.68;96902.63;5048855;28;20040;-63
2021/03/13 08:47:40;;;;;;;25.15;15.38;;;;;;;9.51;60.83;96931.41;5057802;28;20821;-62
2021/03/13 08:50:43;;;;;;;27.60;14.95;;;;;;;10.08;59.34;96923.00;5049727;28;20140;-63
2021/03/13 08:53:34;;;;;;;30.52;18.40;;;;;;;10.55;56.70;96923.38;5046251;28;20127;-63
2021/03/13 08:56:52;;;;;;;24.05;16.90;;;;;;;11.03;55.31;96929.19;5045487;28;20160;-60
2021/03/13 08:59:38;;;;;;;20.90;14.80;;;;;;;10.76;56.38;96933.16;5035635;28;20059;-66
2021/03/13 09:02:25;;;;;;;25.90;16.45;;;;;;;10.27;58.29;96925.69;5036811;28;20089;-63
2021/03/13 09:05:13;;;;;;;21.17;15.20;;;;;;;10.28;55.84;96860.84;5045706;28;20147;-61
2021/03/13 09:07:58;;;;;;;29.77;18.52;;;;;;;10.66;55.07;96882.78;5046424;28;20051;-62
2021/03/13 09:10:41;;;;;;;21.23;15.20;;;;;;;11.11;53.78;96941.97;5045311;28;20628;-63
2021/03/13 09:13:25;;;;;;;19.85;13.75;;;;;;;10.89;54.02;96912.38;5045882;28;20044;-62
2021/03/13 09:16:19;;;;;;;22.48;16.38;;;;;;;10.88;56.09;96932.91;5044164;28;20102;-63
2021/03/13 09:19:06;;;;;;;23.23;15.75;;;;;;;11.16;54.64;96927.78;5045951;28;20087;-62
2021/03/13 09:21:56;;;;;;;22.02;15.80;;;;;;;11.13;53.70;96934.06;5045595;28;20141;-62
2021/03/13 09:24:42;;;;;;;21.80;15.35;;;;;;;11.06;52.32;96922.88;5027947;28;20576;-62
2021/03/13 09:27:28;;;;;;;22.35;15.65;;;;;;;11.33;52.41;96921.63;5038008;28;20032;-68
2021/03/13 09:30:21;;;;;;;22.75;15.40;;;;;;;10.73;54.63;96921.63;5024995;28;20075;-69
2021/03/13 09:33:05;;;;;;;25.35;16.23;;;;;;;11.13;52.89;96862.00;5036280;28;20530;-66
2021/03/13 09:35:49;;;;;;;29.73;15.50;;;;;;;10.67;51.72;96862.19;5027775;28;20056;-66
2021/03/13 09:38:33;;;;;;;26.35;15.52;;;;;;;9.20;54.00;96729.84;5023283;28;20080;-63
2021/03/13 09:41:17;;;;;;;34.38;23.75;;;;;;;10.77;52.94;96799.78;5024467;28;20907;-62
2021/03/13 09:44:02;;;;;;;18.10;13.48;;;;;;;10.94;52.00;96876.00;5038976;28;20510;-61
2021/03/13 09:46:46;;;;;;;20.92;15.05;;;;;;;10.81;51.75;96767.41;5041772;28;21299;-63
2021/03/13 09:49:30;;;;;;;23.55;16.42;;;;;;;12.80;49.91;96889.69;5025584;28;20044;-61
2021/03/13 09:52:14;;;;;;;32.00;22.25;;;;;;;13.94;47.22;96881.34;5037160;28;20103;-61
2021/03/13 09:55:09;;;;;;;21.15;14.80;;;;;;;14.50;45.79;96866.66;5044788;28;20534;-61
2021/03/13 09:57:55;;;;;;;19.52;13.68;;;;;;;14.47;44.82;96859.09;5043402;28;20043;-62
2021/03/13 10:00:43;;;;;;;16.35;11.88;;;;;;;15.37;42.89;96862.84;5044370;28;20051;-61
2021/03/13 10:03:27;;;;;;;17.55;12.88;;;;;;;15.57;42.50;96872.31;5043518;28;20136;-61
2021/03/13 10:06:12;;;;;;;40.80;26.38;;;;;;;15.32;41.97;96764.78;5042965;28;20040;-61
2021/03/13 10:08:59;;;;;;;14.90;11.73;;;;;;;16.71;39.66;96856.34;5044789;28;20129;-63
2021/03/13 10:11:43;;;;;;;19.55;13.00;;;;;;;16.69;39.95;96841.97;5044258;28;20036;-64
2021/03/13 10:14:27;;;;;;;30.55;17.52;;;;;;;16.70;39.44;96837.94;5044915;28;20126;-61
2021/03/13 10:17:11;;;;;;;;;;;;;;;16.18;40.71;96863.16;5045425;28;20051;-60
2021/03/13 10:19:55;;;;;;;19.90;14.40;;;;;;;14.98;41.96;96812.75;5045006;28;20493;-60
2021/03/13 10:22:39;;;;;;;;;;;;;;;14.72;42.89;96848.72;5045071;28;20098;-62
2021/03/13 10:25:23;;;;;;;16.30;11.18;;;;;;;15.67;42.13;96849.13;5044205;28;19974;-60
2021/03/13 10:28:08;;;;;;;14.75;10.95;;;;;;;16.46;40.35;96850.97;5044642;28;20432;-60
2021/03/13 10:31:04;;;;;;;16.02;11.32;;;;;;;15.53;40.61;96838.06;5043713;28;20079;-61
2021/03/13 10:33:50;;;;;;;12.32;9.65;;;;;;;15.32;40.41;96807.44;5044871;28;20087;-61
2021/03/13 10:36:42;;;;;;;11.98;10.00;;;;;;;15.87;40.26;96846.63;5042827;28;20573;-60
2021/03/13 10:39:27;;;;;;;15.23;11.05;;;;;;;15.47;40.65;96800.63;5042243;28;20056;-62
2021/03/13 10:42:22;;;;;;;13.60;9.50;;;;;;;13.97;41.42;96696.00;5042526;28;20044;-61
2021/03/13 10:45:32;;;;;;;14.88;10.75;;;;;;;15.31;40.69;96853.28;5044067;28;20059;-60
2021/03/13 10:48:17;;;;;;;12.20;8.60;;;;;;;15.41;40.24;96851.69;5043562;28;20549;-61
2021/03/13 10:51:01;;;;;;;;;;;;;;;15.35;40.66;96848.47;5024154;28;20049;-61
2021/03/13 10:53:46;;;;;;;14.25;10.25;;;;;;;15.65;41.62;96839.59;5024285;28;20623;-60
2021/03/13 10:56:40;;;;;;;;;;;;;;;15.59;41.70;96836.41;5023583;28;20041;-60
2021/03/13 10:59:31;;;;;;;13.23;10.00;;;;;;;15.60;41.03;96810.09;5024059;28;19970;-61
2021/03/13 11:02:15;;;;;;;14.80;10.68;;;;;;;16.27;40.60;96821.56;5023695;28;20064;-62
2021/03/13 11:05:00;;;;;;;15.98;12.23;;;;;;;15.51;42.21;96834.88;5023004;28;20099;-63
2021/03/13 11:07:44;;;;;;;17.33;11.65;;;;;;;16.09;41.39;96826.50;5024394;28;20132;-61
2021/03/13 11:10:29;;;;;;;16.50;11.77;;;;;;;16.01;40.74;96836.13;5023393;28;20168;-61
2021/03/13 11:13:13;;;;;;;39.17;20.48;;;;;;;16.37;40.65;96829.06;5023574;28;20052;-62
2021/03/13 11:15:58;;;;;;;17.92;11.27;;;;;;;15.54;41.91;96833.28;5023388;28;20083;-61
2021/03/13 11:18:42;;;;;;;17.80;11.45;;;;;;;15.73;42.25;96825.16;5022333;28;20103;-60
2021/03/13 11:21:26;;;;;;;;;;;;;;;16.02;41.10;96826.56;5022992;28;20587;-61
2021/03/13 11:24:11;;;;;;;13.88;9.68;;;;;;;15.66;41.23;96768.56;5036877;28;20362;-60
2021/03/13 11:26:55;;;;;;;11.60;9.35;;;;;;;16.04;41.24;96818.56;5023452;28;20120;-61
2021/03/13 11:29:39;;;;;;;12.70;10.77;;;;;;;16.05;41.65;96824.94;5022288;28;20514;-62
2021/03/13 11:32:23;;;;;;;11.85;9.80;;;;;;;15.81;41.35;96723.34;5022189;28;20052;-61
2021/03/13 11:35:09;;;;;;;11.95;10.40;;;;;;;16.82;40.17;96787.09;5022860;28;20448;-62
2021/03/13 11:37:54;;;;;;;14.43;11.95;;;;;;;17.48;39.32;96799.47;5022124;28;20099;-60
2021/03/13 11:40:38;;;;;;;16.55;12.38;;;;;;;17.80;39.46;96794.97;5021862;28;20126;-61
2021/03/13 11:43:23;;;;;;;14.05;10.88;;;;;;;17.44;38.82;96760.28;5023815;28;20048;-61
2021/03/13 11:46:12;;;;;;;14.13;12.40;;;;;;;17.53;39.88;96796.19;5023176;28;20041;-62
2021/03/13 11:48:56;;;;;;;15.80;13.07;;;;;;;17.98;39.57;96791.91;5029126;28;20083;-61
2021/03/13 11:51:40;;;;;;;;;;;;;;;17.53;38.63;96796.19;5043331;28;20126;-61
2021/03/13 11:54:24;;;;;;;18.65;14.27;;;;;;;16.83;41.34;96797.84;5043597;28;20338;-61
2021/03/13 11:57:08;;;;;;;;;;;;;;;16.31;41.67;96793.56;5043315;28;20209;-61
2021/03/13 11:59:52;;;;;;;14.48;10.80;;;;;;;15.48;43.08;96791.03;5042636;28;19947;-61
2021/03/13 12:02:38;;;;;;;17.98;11.70;;;;;;;14.08;43.95;96629.91;5041366;28;20076;-61
2021/03/13 12:05:22;;;;;;;19.00;13.68;;;;;;;15.08;44.60;96794.38;5043062;28;20466;-61
2021/03/13 12:08:06;;;;;;;;;;;;;;;14.95;45.74;96784.91;5043926;28;20080;-61
2021/03/13 12:10:50;;;;;;;22.95;15.40;;;;;;;15.01;44.85;96777.69;5043026;28;20035;-61
2021/03/13 12:13:34;;;;;;;23.17;15.32;;;;;;;15.29;44.34;96788.72;5043009;28;20052;-60
2021/03/13 12:16:18;;;;;;;20.45;14.80;;;;;;;15.25;44.58;96760.03;5042268;28;20091;-61
2021/03/13 12:19:02;;;;;;;24.02;17.13;;;;;;;15.91;43.63;96775.56;5043004;28;20565;-61
2021/03/13 12:21:47;;;;;;;21.88;16.42;;;;;;;15.71;43.16;96704.69;5042546;28;20047;-60
2021/03/13 12:24:32;;;;;;;19.20;14.25;;;;;;;16.30;42.20;96758.44;5043521;28;20036;-60
2021/03/13 12:27:17;;;;;;;14.30;10.77;;;;;;;16.76;41.01;96757.97;5044888;28;20128;-60
2021/03/13 12:30:00;;;;;;;;;;;;;;;17.13;40.31;96753.09;5047375;28;20522;-61
2021/03/13 12:32:45;;;;;;;15.18;11.65;;;;;;;17.03;39.36;96716.84;5045901;28;20010;-62
2021/03/13 12:35:29;;;;;;;16.90;12.48;;;;;;;17.52;38.75;96721.78;5045141;28;20074;-62
2021/03/13 12:38:13;;;;;;;13.07;9.93;;;;;;;15.46;40.73;96614.00;5043965;28;20107;-61
2021/03/13 12:40:57;;;;;;;;;;;;;;;16.49;40.99;96722.31;5046073;28;20476;-60
2021/03/13 12:43:41;;;;;;;10.88;8.65;;;;;;;16.98;39.55;96726.50;5045377;28;19932;-61
2021/03/13 12:46:25;;;;;;;15.52;11.82;;;;;;;17.18;39.72;96741.41;5045668;28;20510;-61
2021/03/13 12:49:10;;;;;;;10.95;9.07;;;;;;;17.23;38.52;96749.34;5039312;28;20052;-61
2021/03/13 12:51:54;;;;;;;11.77;9.40;;;;;;;16.94;39.11;96741.75;5026044;28;20129;-60
2021/03/13 12:54:38;;;;;;;13.45;8.50;;;;;;;17.08;38.58;96735.97;5026567;28;20080;-60
2021/03/13 12:57:21;;;;;;;;;;;;;;;16.93;39.07;96729.75;5025195;28;20049;-63
2021/03/13 13:00:06;;;;;;;12.50;9.20;;;;;;;15.69;41.53;96729.47;5026040;28;19944;-60